sensor_id;sensor_type;location;lat;lon;timestamp;pressure;altitude;pressure_sealevel;temperature;humidity
44872;BME280;30602;51.060;17.226;2023-08-06T00:03:23;100432.68;;;15.63;100.00
44872;BME280;30602;51.060;17.226;2023-08-06T00:07:18;100432.12;;;15.70;100.00
44872;BME280;30602;51.060;17.226;2023-08-06T00:11:01;100433.70;;;15.75;100.00
44872;BME280;30602;51.060;17.226;2023-08-06T00:14:37;100430.50;;;15.73;100.00
44872;BME280;30602;51.060;17.226;2023-08-06T00:18:01;100421.95;;;15.71;100.00
44872;BME280;30602;51.060;17.226;2023-08-06T00:21:25;100415.20;;;15.66;100.00
44872;BME280;30602;51.060;17.226;2023-08-06T00:25:09;100403.48;;;15.66;100.00
44872;BME280;30602;51.060;17.226;2023-08-06T00:29:15;100402.57;;;15.64;100.00
44872;BME280;30602;51.060;17.226;2023-08-06T00:32:40;100394.83;;;15.70;100.00
44872;BME280;30602;51.060;17.226;2023-08-06T00:36:56;100391.77;;;15.73;100.00
44872;BME280;30602;51.060;17.226;2023-08-06T00:40:33;100383.84;;;15.74;100.00
44872;BME280;30602;51.060;17.226;2023-08-06T00:44:17;100370.34;;;15.73;100.00
44872;BME280;30602;51.060;17.226;2023-08-06T00:48:13;100355.28;;;15.73;100.00
44872;BME280;30602;51.060;17.226;2023-08-06T00:51:48;100337.59;;;15.68;100.00
44872;BME280;30602;51.060;17.226;2023-08-06T00:55:12;100324.01;;;15.65;100.00
44872;BME280;30602;51.060;17.226;2023-08-06T00:59:26;100309.27;;;15.69;100.00
44872;BME280;30602;51.060;17.226;2023-08-06T01:03:13;100303.16;;;15.69;100.00
44872;BME280;30602;51.060;17.226;2023-08-06T01:07:30;100296.92;;;15.66;100.00
44872;BME280;30602;51.060;17.226;2023-08-06T01:15:15;100274.16;;;15.64;100.00
44872;BME280;30602;51.060;17.226;2023-08-06T01:19:01;100272.85;;;15.64;100.00
44872;BME280;30602;51.060;17.226;2023-08-06T01:22:26;100267.69;;;15.64;100.00
44872;BME280;30602;51.060;17.226;2023-08-06T01:26:33;100262.77;;;15.70;100.00
44872;BME280;30602;51.060;17.226;2023-08-06T01:30:32;100251.72;;;15.71;100.00
44872;BME280;30602;51.060;17.226;2023-08-06T01:34:23;100224.82;;;15.67;100.00
44872;BME280;30602;51.060;17.226;2023-08-06T01:38:06;100223.57;;;15.60;100.00
44872;BME280;30602;51.060;17.226;2023-08-06T01:41:54;100212.93;;;15.51;100.00
44872;BME280;30602;51.060;17.226;2023-08-06T01:45:48;100203.37;;;15.47;100.00
44872;BME280;30602;51.060;17.226;2023-08-06T01:49:12;100207.24;;;15.51;100.00
44872;BME280;30602;51.060;17.226;2023-08-06T01:52:56;100203.36;;;15.55;100.00
44872;BME280;30602;51.060;17.226;2023-08-06T01:56:38;100184.64;;;15.49;100.00
44872;BME280;30602;51.060;17.226;2023-08-06T02:00:14;100182.02;;;15.41;100.00
44872;BME280;30602;51.060;17.226;2023-08-06T02:03:38;100176.92;;;15.35;100.00
44872;BME280;30602;51.060;17.226;2023-08-06T02:07:43;100171.01;;;15.29;100.00
44872;BME280;30602;51.060;17.226;2023-08-06T02:11:37;100165.85;;;15.24;100.00
44872;BME280;30602;51.060;17.226;2023-08-06T02:15:11;100165.41;;;15.25;100.00
44872;BME280;30602;51.060;17.226;2023-08-06T02:18:46;100154.74;;;15.21;100.00
44872;BME280;30602;51.060;17.226;2023-08-06T02:26:31;100117.77;;;15.11;100.00
44872;BME280;30602;51.060;17.226;2023-08-06T02:34:02;100088.63;;;15.04;100.00
44872;BME280;30602;51.060;17.226;2023-08-06T02:37:36;100075.77;;;14.98;100.00
44872;BME280;30602;51.060;17.226;2023-08-06T02:44:53;100076.02;;;14.98;100.00
44872;BME280;30602;51.060;17.226;2023-08-06T02:48:48;100082.42;;;14.97;100.00
44872;BME280;30602;51.060;17.226;2023-08-06T02:52:29;100082.47;;;14.93;100.00
44872;BME280;30602;51.060;17.226;2023-08-06T02:55:51;100076.17;;;14.92;100.00
44872;BME280;30602;51.060;17.226;2023-08-06T03:00:31;100069.20;;;14.84;100.00
44872;BME280;30602;51.060;17.226;2023-08-06T03:04:59;100065.05;;;14.82;100.00
44872;BME280;30602;51.060;17.226;2023-08-06T03:08:44;100067.41;;;14.84;100.00
44872;BME280;30602;51.060;17.226;2023-08-06T03:12:09;100078.54;;;14.85;100.00
44872;BME280;30602;51.060;17.226;2023-08-06T03:16:27;100086.13;;;14.84;100.00
44872;BME280;30602;51.060;17.226;2023-08-06T03:20:10;100083.52;;;14.81;100.00
44872;BME280;30602;51.060;17.226;2023-08-06T03:24:14;100080.75;;;14.76;100.00
44872;BME280;30602;51.060;17.226;2023-08-06T03:27:56;100072.35;;;14.73;100.00
44872;BME280;30602;51.060;17.226;2023-08-06T03:31:54;100065.56;;;14.74;100.00
44872;BME280;30602;51.060;17.226;2023-08-06T03:36:22;100061.15;;;14.73;100.00
44872;BME280;30602;51.060;17.226;2023-08-06T03:40:06;100056.28;;;14.77;100.00
44872;BME280;30602;51.060;17.226;2023-08-06T03:44:01;100049.46;;;14.72;100.00
44872;BME280;30602;51.060;17.226;2023-08-06T03:48:18;100056.13;;;14.68;100.00
44872;BME280;30602;51.060;17.226;2023-08-06T03:52:24;100065.48;;;14.64;100.00
44872;BME280;30602;51.060;17.226;2023-08-06T03:56:23;100067.52;;;14.63;100.00
44872;BME280;30602;51.060;17.226;2023-08-06T04:00:08;100060.59;;;14.63;100.00
44872;BME280;30602;51.060;17.226;2023-08-06T04:04:07;100066.49;;;14.63;100.00
44872;BME280;30602;51.060;17.226;2023-08-06T04:07:54;100075.98;;;14.63;100.00
44872;BME280;30602;51.060;17.226;2023-08-06T04:11:41;100077.13;;;14.66;100.00
44872;BME280;30602;51.060;17.226;2023-08-06T04:15:44;100068.35;;;14.64;100.00
44872;BME280;30602;51.060;17.226;2023-08-06T04:19:28;100067.42;;;14.59;100.00
44872;BME280;30602;51.060;17.226;2023-08-06T04:23:07;100061.52;;;14.53;100.00
44872;BME280;30602;51.060;17.226;2023-08-06T04:26:53;100062.47;;;14.53;100.00
44872;BME280;30602;51.060;17.226;2023-08-06T04:30:42;100055.44;;;14.47;100.00
44872;BME280;30602;51.060;17.226;2023-08-06T04:34:07;100043.71;;;14.51;100.00
44872;BME280;30602;51.060;17.226;2023-08-06T04:37:46;100032.87;;;14.45;100.00
44872;BME280;30602;51.060;17.226;2023-08-06T04:41:24;100023.59;;;14.41;100.00
44872;BME280;30602;51.060;17.226;2023-08-06T04:44:46;100016.16;;;14.42;100.00
44872;BME280;30602;51.060;17.226;2023-08-06T04:48:19;100017.44;;;14.37;100.00
44872;BME280;30602;51.060;17.226;2023-08-06T04:51:54;100023.12;;;14.41;100.00
44872;BME280;30602;51.060;17.226;2023-08-06T04:55:27;100018.19;;;14.39;100.00
44872;BME280;30602;51.060;17.226;2023-08-06T04:58:49;100016.40;;;14.36;100.00
44872;BME280;30602;51.060;17.226;2023-08-06T05:03:18;100024.31;;;14.35;100.00
44872;BME280;30602;51.060;17.226;2023-08-06T05:06:58;100009.45;;;14.38;100.00
44872;BME280;30602;51.060;17.226;2023-08-06T05:10:27;100004.45;;;14.36;100.00
44872;BME280;30602;51.060;17.226;2023-08-06T05:13:49;100005.39;;;14.34;100.00
44872;BME280;30602;51.060;17.226;2023-08-06T05:17:27;100010.78;;;14.33;100.00
44872;BME280;30602;51.060;17.226;2023-08-06T05:20:48;99998.10;;;14.36;100.00
44872;BME280;30602;51.060;17.226;2023-08-06T05:24:31;99992.61;;;14.38;100.00
44872;BME280;30602;51.060;17.226;2023-08-06T05:28:44;100004.36;;;14.37;100.00
44872;BME280;30602;51.060;17.226;2023-08-06T05:32:26;99998.90;;;14.34;100.00
44872;BME280;30602;51.060;17.226;2023-08-06T05:35:49;99985.50;;;14.29;100.00
44872;BME280;30602;51.060;17.226;2023-08-06T05:40:16;99996.24;;;14.30;100.00
44872;BME280;30602;51.060;17.226;2023-08-06T05:47:49;99934.23;;;14.30;100.00
44872;BME280;30602;51.060;17.226;2023-08-06T05:55:41;99980.42;;;14.37;100.00
44872;BME280;30602;51.060;17.226;2023-08-06T05:59:21;99992.17;;;14.33;100.00
44872;BME280;30602;51.060;17.226;2023-08-06T06:03:04;99984.04;;;14.32;100.00
44872;BME280;30602;51.060;17.226;2023-08-06T06:06:55;99980.56;;;14.27;100.00
44872;BME280;30602;51.060;17.226;2023-08-06T06:10:49;100010.83;;;14.27;100.00
44872;BME280;30602;51.060;17.226;2023-08-06T06:14:28;100029.24;;;14.33;100.00
44872;BME280;30602;51.060;17.226;2023-08-06T06:18:23;100012.32;;;14.34;100.00
44872;BME280;30602;51.060;17.226;2023-08-06T06:21:57;100000.43;;;14.30;100.00
44872;BME280;30602;51.060;17.226;2023-08-06T06:25:50;99991.41;;;14.27;100.00
44872;BME280;30602;51.060;17.226;2023-08-06T06:30:22;99974.04;;;14.24;100.00
44872;BME280;30602;51.060;17.226;2023-08-06T06:34:18;99986.46;;;14.20;100.00
44872;BME280;30602;51.060;17.226;2023-08-06T06:38:01;99979.60;;;14.22;100.00
44872;BME280;30602;51.060;17.226;2023-08-06T06:41:35;99978.63;;;14.25;100.00
44872;BME280;30602;51.060;17.226;2023-08-06T06:45:19;99975.80;;;14.27;100.00
44872;BME280;30602;51.060;17.226;2023-08-06T06:48:51;99979.65;;;14.25;100.00
44872;BME280;30602;51.060;17.226;2023-08-06T06:52:59;99974.77;;;14.25;100.00
44872;BME280;30602;51.060;17.226;2023-08-06T06:56:23;99976.12;;;14.26;100.00
44872;BME280;30602;51.060;17.226;2023-08-06T07:00:06;99972.17;;;14.25;100.00
44872;BME280;30602;51.060;17.226;2023-08-06T07:03:55;99971.89;;;14.26;100.00
44872;BME280;30602;51.060;17.226;2023-08-06T07:07:40;99967.91;;;14.31;100.00
44872;BME280;30602;51.060;17.226;2023-08-06T07:11:34;99956.39;;;14.37;100.00
44872;BME280;30602;51.060;17.226;2023-08-06T07:15:10;99954.39;;;14.35;100.00
44872;BME280;30602;51.060;17.226;2023-08-06T07:22:56;99963.23;;;14.31;100.00
44872;BME280;30602;51.060;17.226;2023-08-06T07:26:18;99967.96;;;14.35;100.00
44872;BME280;30602;51.060;17.226;2023-08-06T07:29:52;99963.00;;;14.33;100.00
44872;BME280;30602;51.060;17.226;2023-08-06T07:33:54;99955.68;;;14.39;100.00
44872;BME280;30602;51.060;17.226;2023-08-06T07:41:59;99949.92;;;14.31;100.00
44872;BME280;30602;51.060;17.226;2023-08-06T07:46:06;99947.37;;;14.38;100.00
44872;BME280;30602;51.060;17.226;2023-08-06T07:49:48;99942.81;;;14.36;100.00
44872;BME280;30602;51.060;17.226;2023-08-06T07:53:25;99935.70;;;14.33;100.00
44872;BME280;30602;51.060;17.226;2023-08-06T07:57:16;99928.33;;;14.33;100.00
44872;BME280;30602;51.060;17.226;2023-08-06T08:01:00;99920.49;;;14.35;100.00
44872;BME280;30602;51.060;17.226;2023-08-06T08:04:39;99903.23;;;14.42;100.00
44872;BME280;30602;51.060;17.226;2023-08-06T08:08:20;99892.24;;;14.40;100.00
44872;BME280;30602;51.060;17.226;2023-08-06T08:12:45;99873.95;;;14.41;100.00
44872;BME280;30602;51.060;17.226;2023-08-06T08:16:30;99862.08;;;14.47;100.00
44872;BME280;30602;51.060;17.226;2023-08-06T08:20:05;99863.91;;;14.44;100.00
44872;BME280;30602;51.060;17.226;2023-08-06T08:23:50;99875.91;;;14.48;100.00
44872;BME280;30602;51.060;17.226;2023-08-06T08:27:33;99888.70;;;14.59;100.00
44872;BME280;30602;51.060;17.226;2023-08-06T08:31:20;99899.61;;;14.60;100.00
44872;BME280;30602;51.060;17.226;2023-08-06T08:35:03;99897.35;;;14.59;100.00
44872;BME280;30602;51.060;17.226;2023-08-06T08:38:29;99887.29;;;14.58;100.00
44872;BME280;30602;51.060;17.226;2023-08-06T08:42:28;99883.20;;;14.59;100.00
44872;BME280;30602;51.060;17.226;2023-08-06T08:45:54;99874.45;;;14.58;100.00
44872;BME280;30602;51.060;17.226;2023-08-06T08:49:35;99871.27;;;14.61;100.00
44872;BME280;30602;51.060;17.226;2023-08-06T08:53:56;99865.77;;;14.65;100.00
44872;BME280;30602;51.060;17.226;2023-08-06T08:58:01;99862.04;;;14.68;100.00
44872;BME280;30602;51.060;17.226;2023-08-06T09:01:37;99853.84;;;14.67;100.00
44872;BME280;30602;51.060;17.226;2023-08-06T09:05:05;99848.23;;;14.70;100.00
44872;BME280;30602;51.060;17.226;2023-08-06T09:08:36;99853.30;;;14.64;100.00
44872;BME280;30602;51.060;17.226;2023-08-06T09:12:25;99857.14;;;14.62;100.00
44872;BME280;30602;51.060;17.226;2023-08-06T09:16:09;99856.55;;;14.59;100.00
44872;BME280;30602;51.060;17.226;2023-08-06T09:20:14;99860.58;;;14.69;100.00
44872;BME280;30602;51.060;17.226;2023-08-06T09:24:00;99863.03;;;14.70;100.00
44872;BME280;30602;51.060;17.226;2023-08-06T09:27:56;99859.99;;;14.66;100.00
44872;BME280;30602;51.060;17.226;2023-08-06T09:31:45;99860.55;;;14.71;100.00
44872;BME280;30602;51.060;17.226;2023-08-06T09:35:35;99870.20;;;14.66;100.00
44872;BME280;30602;51.060;17.226;2023-08-06T09:39:28;99871.98;;;14.65;100.00
44872;BME280;30602;51.060;17.226;2023-08-06T09:43:25;99866.46;;;14.60;100.00
44872;BME280;30602;51.060;17.226;2023-08-06T09:47:05;99872.04;;;14.68;100.00
44872;BME280;30602;51.060;17.226;2023-08-06T09:50:42;99875.02;;;14.66;100.00
44872;BME280;30602;51.060;17.226;2023-08-06T09:54:51;99882.80;;;14.62;100.00
44872;BME280;30602;51.060;17.226;2023-08-06T09:58:49;99871.05;;;14.66;100.00
44872;BME280;30602;51.060;17.226;2023-08-06T10:03:15;99870.72;;;14.61;100.00
44872;BME280;30602;51.060;17.226;2023-08-06T10:06:59;99868.14;;;14.64;100.00
44872;BME280;30602;51.060;17.226;2023-08-06T10:10:54;99854.07;;;14.61;100.00
44872;BME280;30602;51.060;17.226;2023-08-06T10:15:04;99836.53;;;14.69;100.00
44872;BME280;30602;51.060;17.226;2023-08-06T10:19:09;99828.29;;;14.69;100.00
44872;BME280;30602;51.060;17.226;2023-08-06T10:30:58;99778.37;;;14.71;100.00
44872;BME280;30602;51.060;17.226;2023-08-06T10:39:13;99776.78;;;14.68;100.00
44872;BME280;30602;51.060;17.226;2023-08-06T10:47:27;99777.10;;;14.79;100.00
44872;BME280;30602;51.060;17.226;2023-08-06T10:50:54;99768.83;;;14.83;100.00
44872;BME280;30602;51.060;17.226;2023-08-06T10:54:38;99765.52;;;14.83;100.00
44872;BME280;30602;51.060;17.226;2023-08-06T10:58:03;99773.96;;;14.87;100.00
44872;BME280;30602;51.060;17.226;2023-08-06T11:01:29;99775.97;;;14.93;100.00
44872;BME280;30602;51.060;17.226;2023-08-06T11:05:51;99770.23;;;14.96;100.00
44872;BME280;30602;51.060;17.226;2023-08-06T11:09:36;99773.47;;;15.07;100.00
44872;BME280;30602;51.060;17.226;2023-08-06T11:13:17;99776.54;;;15.10;100.00
44872;BME280;30602;51.060;17.226;2023-08-06T11:17:14;99778.55;;;15.04;100.00
44872;BME280;30602;51.060;17.226;2023-08-06T11:21:20;99781.98;;;15.00;100.00
44872;BME280;30602;51.060;17.226;2023-08-06T11:29:12;99770.49;;;15.02;100.00
44872;BME280;30602;51.060;17.226;2023-08-06T11:32:46;99772.87;;;15.01;100.00
44872;BME280;30602;51.060;17.226;2023-08-06T11:36:41;99768.79;;;15.03;100.00
44872;BME280;30602;51.060;17.226;2023-08-06T11:40:29;99779.85;;;15.12;100.00
44872;BME280;30602;51.060;17.226;2023-08-06T11:44:11;99776.70;;;15.10;100.00
44872;BME280;30602;51.060;17.226;2023-08-06T11:48:25;99783.12;;;15.06;100.00
44872;BME280;30602;51.060;17.226;2023-08-06T11:52:42;99794.27;;;15.03;100.00
44872;BME280;30602;51.060;17.226;2023-08-06T11:56:19;99792.18;;;15.01;100.00
44872;BME280;30602;51.060;17.226;2023-08-06T11:59:46;99797.62;;;15.02;100.00
44872;BME280;30602;51.060;17.226;2023-08-06T12:06:55;99797.35;;;15.01;100.00
44872;BME280;30602;51.060;17.226;2023-08-06T12:14:40;99799.33;;;14.99;100.00
44872;BME280;30602;51.060;17.226;2023-08-06T12:18:58;99808.70;;;14.98;100.00
44872;BME280;30602;51.060;17.226;2023-08-06T12:22:42;99815.31;;;15.17;100.00
44872;BME280;30602;51.060;17.226;2023-08-06T12:26:31;99819.62;;;15.14;100.00
44872;BME280;30602;51.060;17.226;2023-08-06T12:30:35;99822.68;;;15.12;100.00
44872;BME280;30602;51.060;17.226;2023-08-06T12:34:15;99834.17;;;15.05;100.00
44872;BME280;30602;51.060;17.226;2023-08-06T12:37:37;99838.95;;;15.05;100.00
44872;BME280;30602;51.060;17.226;2023-08-06T12:42:20;99843.30;;;15.01;100.00
44872;BME280;30602;51.060;17.226;2023-08-06T12:45:45;99840.52;;;15.04;100.00
44872;BME280;30602;51.060;17.226;2023-08-06T12:49:40;99842.98;;;15.08;100.00
44872;BME280;30602;51.060;17.226;2023-08-06T12:53:24;99843.28;;;15.10;100.00
44872;BME280;30602;51.060;17.226;2023-08-06T12:57:03;99846.84;;;15.14;100.00
44872;BME280;30602;51.060;17.226;2023-08-06T13:01:09;99850.41;;;15.33;100.00
44872;BME280;30602;51.060;17.226;2023-08-06T13:04:33;99858.73;;;15.31;100.00
44872;BME280;30602;51.060;17.226;2023-08-06T13:08:39;99868.81;;;15.30;100.00
44872;BME280;30602;51.060;17.226;2023-08-06T13:12:52;99866.45;;;15.29;100.00
44872;BME280;30602;51.060;17.226;2023-08-06T13:16:21;99862.29;;;15.33;100.00
44872;BME280;30602;51.060;17.226;2023-08-06T13:19:43;99865.85;;;15.31;100.00
44872;BME280;30602;51.060;17.226;2023-08-06T13:23:21;99872.69;;;15.32;100.00
44872;BME280;30602;51.060;17.226;2023-08-06T13:27:17;99868.80;;;15.24;100.00
44872;BME280;30602;51.060;17.226;2023-08-06T13:30:59;99876.63;;;15.19;100.00
44872;BME280;30602;51.060;17.226;2023-08-06T13:34:54;99881.63;;;15.22;100.00
44872;BME280;30602;51.060;17.226;2023-08-06T13:38:59;99891.88;;;15.14;100.00
44872;BME280;30602;51.060;17.226;2023-08-06T13:42:33;99895.44;;;15.19;100.00
44872;BME280;30602;51.060;17.226;2023-08-06T13:46:27;99903.78;;;15.22;100.00
44872;BME280;30602;51.060;17.226;2023-08-06T13:50:21;99910.31;;;15.17;100.00
44872;BME280;30602;51.060;17.226;2023-08-06T13:53:48;99905.95;;;15.15;100.00
44872;BME280;30602;51.060;17.226;2023-08-06T13:57:29;99915.44;;;15.22;100.00
44872;BME280;30602;51.060;17.226;2023-08-06T14:01:22;99919.88;;;15.18;100.00
44872;BME280;30602;51.060;17.226;2023-08-06T14:05:16;99914.59;;;15.08;100.00
44872;BME280;30602;51.060;17.226;2023-08-06T14:09:33;99916.05;;;15.19;100.00
44872;BME280;30602;51.060;17.226;2023-08-06T14:13:32;99918.25;;;15.21;100.00
44872;BME280;30602;51.060;17.226;2023-08-06T14:17:19;99922.97;;;15.18;100.00
44872;BME280;30602;51.060;17.226;2023-08-06T14:20:46;99924.23;;;15.17;100.00
44872;BME280;30602;51.060;17.226;2023-08-06T14:24:21;99923.79;;;15.09;100.00
44872;BME280;30602;51.060;17.226;2023-08-06T14:27:46;99929.36;;;15.11;100.00
44872;BME280;30602;51.060;17.226;2023-08-06T14:31:27;99935.02;;;15.13;100.00
44872;BME280;30602;51.060;17.226;2023-08-06T14:35:11;99936.07;;;15.18;100.00
44872;BME280;30602;51.060;17.226;2023-08-06T14:38:56;99942.75;;;15.17;100.00
44872;BME280;30602;51.060;17.226;2023-08-06T14:42:21;99953.63;;;15.24;100.00
44872;BME280;30602;51.060;17.226;2023-08-06T14:45:56;99948.34;;;15.18;100.00
44872;BME280;30602;51.060;17.226;2023-08-06T14:49:38;99950.11;;;15.14;100.00
44872;BME280;30602;51.060;17.226;2023-08-06T14:53:14;99957.21;;;15.11;100.00
44872;BME280;30602;51.060;17.226;2023-08-06T14:57:05;99959.23;;;15.07;100.00
44872;BME280;30602;51.060;17.226;2023-08-06T15:00:28;99953.89;;;15.09;100.00
44872;BME280;30602;51.060;17.226;2023-08-06T15:04:05;99957.95;;;15.24;100.00
44872;BME280;30602;51.060;17.226;2023-08-06T15:08:20;99958.53;;;15.31;100.00
44872;BME280;30602;51.060;17.226;2023-08-06T15:11:44;99968.22;;;15.28;100.00
44872;BME280;30602;51.060;17.226;2023-08-06T15:19:26;99977.25;;;15.20;100.00
44872;BME280;30602;51.060;17.226;2023-08-06T15:23:13;99981.02;;;15.14;100.00
44872;BME280;30602;51.060;17.226;2023-08-06T15:26:36;99983.38;;;15.14;100.00
44872;BME280;30602;51.060;17.226;2023-08-06T15:30:31;99983.61;;;15.13;100.00
44872;BME280;30602;51.060;17.226;2023-08-06T15:33:54;99995.57;;;15.20;100.00
44872;BME280;30602;51.060;17.226;2023-08-06T15:38:01;99992.20;;;15.14;100.00
44872;BME280;30602;51.060;17.226;2023-08-06T15:41:21;99991.70;;;15.15;100.00
44872;BME280;30602;51.060;17.226;2023-08-06T15:44:45;99998.07;;;15.13;100.00
44872;BME280;30602;51.060;17.226;2023-08-06T15:48:30;100004.36;;;15.27;100.00
44872;BME280;30602;51.060;17.226;2023-08-06T15:51:53;100010.65;;;15.21;100.00
44872;BME280;30602;51.060;17.226;2023-08-06T15:55:48;100012.98;;;15.14;100.00
44872;BME280;30602;51.060;17.226;2023-08-06T16:03:44;100010.58;;;15.18;100.00
44872;BME280;30602;51.060;17.226;2023-08-06T16:07:25;100006.04;;;15.15;100.00
44872;BME280;30602;51.060;17.226;2023-08-06T16:10:47;100006.26;;;15.06;100.00
44872;BME280;30602;51.060;17.226;2023-08-06T16:14:28;100011.05;;;15.04;100.00
44872;BME280;30602;51.060;17.226;2023-08-06T16:17:53;100001.79;;;15.05;100.00
44872;BME280;30602;51.060;17.226;2023-08-06T16:21:14;100012.84;;;15.09;100.00
44872;BME280;30602;51.060;17.226;2023-08-06T16:25:09;100020.26;;;14.99;100.00
44872;BME280;30602;51.060;17.226;2023-08-06T16:29:06;100030.00;;;15.03;100.00
44872;BME280;30602;51.060;17.226;2023-08-06T16:32:49;100038.77;;;14.95;100.00
44872;BME280;30602;51.060;17.226;2023-08-06T16:36:45;100046.57;;;14.94;100.00
44872;BME280;30602;51.060;17.226;2023-08-06T16:40:31;100050.71;;;14.96;100.00
44872;BME280;30602;51.060;17.226;2023-08-06T16:48:11;100046.39;;;14.90;100.00
44872;BME280;30602;51.060;17.226;2023-08-06T16:52:10;100044.38;;;14.92;100.00
44872;BME280;30602;51.060;17.226;2023-08-06T16:55:55;100049.20;;;14.87;100.00
44872;BME280;30602;51.060;17.226;2023-08-06T16:59:43;100055.93;;;14.86;100.00
44872;BME280;30602;51.060;17.226;2023-08-06T17:03:26;100064.44;;;14.87;100.00
44872;BME280;30602;51.060;17.226;2023-08-06T17:07:01;100085.05;;;14.87;100.00
44872;BME280;30602;51.060;17.226;2023-08-06T17:10:45;100092.13;;;14.80;100.00
44872;BME280;30602;51.060;17.226;2023-08-06T17:14:31;100100.51;;;14.79;100.00
44872;BME280;30602;51.060;17.226;2023-08-06T17:17:54;100110.60;;;14.81;100.00
44872;BME280;30602;51.060;17.226;2023-08-06T17:21:14;100115.67;;;14.85;100.00
44872;BME280;30602;51.060;17.226;2023-08-06T17:24:34;100117.65;;;14.81;100.00
44872;BME280;30602;51.060;17.226;2023-08-06T17:28:14;100117.37;;;14.78;100.00
44872;BME280;30602;51.060;17.226;2023-08-06T17:31:38;100114.59;;;14.72;100.00
44872;BME280;30602;51.060;17.226;2023-08-06T17:34:58;100109.86;;;14.69;100.00
44872;BME280;30602;51.060;17.226;2023-08-06T17:38:31;100103.45;;;14.67;100.00
44872;BME280;30602;51.060;17.226;2023-08-06T17:42:07;100095.62;;;14.72;100.00
44872;BME280;30602;51.060;17.226;2023-08-06T17:46:04;100082.26;;;14.72;100.00
44872;BME280;30602;51.060;17.226;2023-08-06T17:50:00;100083.52;;;14.71;100.00
44872;BME280;30602;51.060;17.226;2023-08-06T17:53:43;100080.35;;;14.64;100.00
44872;BME280;30602;51.060;17.226;2023-08-06T17:57:06;100094.13;;;14.58;100.00
44872;BME280;30602;51.060;17.226;2023-08-06T18:01:18;100101.48;;;14.50;100.00
44872;BME280;30602;51.060;17.226;2023-08-06T18:05:23;100103.90;;;14.52;100.00
44872;BME280;30602;51.060;17.226;2023-08-06T18:08:50;100110.55;;;14.51;100.00
44872;BME280;30602;51.060;17.226;2023-08-06T18:12:14;100117.26;;;14.52;100.00
44872;BME280;30602;51.060;17.226;2023-08-06T18:15:37;100117.55;;;14.51;100.00
44872;BME280;30602;51.060;17.226;2023-08-06T18:19:17;100118.83;;;14.48;100.00
44872;BME280;30602;51.060;17.226;2023-08-06T18:22:40;100131.39;;;14.48;100.00
44872;BME280;30602;51.060;17.226;2023-08-06T18:26:13;100139.80;;;14.44;100.00
44872;BME280;30602;51.060;17.226;2023-08-06T18:30:05;100146.03;;;14.48;100.00
44872;BME280;30602;51.060;17.226;2023-08-06T18:37:31;100151.09;;;14.53;100.00
44872;BME280;30602;51.060;17.226;2023-08-06T18:41:01;100146.06;;;14.51;100.00
44872;BME280;30602;51.060;17.226;2023-08-06T18:44:23;100150.32;;;14.44;100.00
44872;BME280;30602;51.060;17.226;2023-08-06T18:47:47;100150.98;;;14.41;100.00
44872;BME280;30602;51.060;17.226;2023-08-06T18:51:40;100152.32;;;14.39;100.00
44872;BME280;30602;51.060;17.226;2023-08-06T18:55:35;100162.73;;;14.41;100.00
44872;BME280;30602;51.060;17.226;2023-08-06T18:59:34;100162.13;;;14.39;100.00
44872;BME280;30602;51.060;17.226;2023-08-06T19:03:26;100167.49;;;14.40;100.00
44872;BME280;30602;51.060;17.226;2023-08-06T19:07:12;100160.30;;;14.46;100.00
44872;BME280;30602;51.060;17.226;2023-08-06T19:10:59;100155.52;;;14.52;100.00
44872;BME280;30602;51.060;17.226;2023-08-06T19:14:20;100152.98;;;14.46;100.00
44872;BME280;30602;51.060;17.226;2023-08-06T19:18:17;100144.77;;;14.43;100.00
44872;BME280;30602;51.060;17.226;2023-08-06T19:21:52;100139.38;;;14.39;100.00
44872;BME280;30602;51.060;17.226;2023-08-06T19:25:46;100143.03;;;14.44;100.00
44872;BME280;30602;51.060;17.226;2023-08-06T19:29:57;100143.06;;;14.40;100.00
44872;BME280;30602;51.060;17.226;2023-08-06T19:37:12;100133.95;;;14.63;100.00
44872;BME280;30602;51.060;17.226;2023-08-06T19:41:08;100133.34;;;14.56;100.00
44872;BME280;30602;51.060;17.226;2023-08-06T19:45:29;100136.17;;;14.57;100.00
44872;BME280;30602;51.060;17.226;2023-08-06T19:49:22;100141.59;;;14.54;100.00
44872;BME280;30602;51.060;17.226;2023-08-06T19:53:36;100142.75;;;14.54;100.00
44872;BME280;30602;51.060;17.226;2023-08-06T19:57:56;100144.00;;;14.56;100.00
44872;BME280;30602;51.060;17.226;2023-08-06T20:01:39;100148.92;;;14.60;100.00
44872;BME280;30602;51.060;17.226;2023-08-06T20:05:03;100145.24;;;14.67;100.00
44872;BME280;30602;51.060;17.226;2023-08-06T20:08:47;100146.17;;;14.60;100.00
44872;BME280;30602;51.060;17.226;2023-08-06T20:12:12;100151.92;;;14.55;100.00
44872;BME280;30602;51.060;17.226;2023-08-06T20:16:09;100148.52;;;14.54;100.00
44872;BME280;30602;51.060;17.226;2023-08-06T20:19:35;100148.41;;;14.49;100.00
44872;BME280;30602;51.060;17.226;2023-08-06T20:22:58;100153.84;;;14.50;100.00
44872;BME280;30602;51.060;17.226;2023-08-06T20:26:34;100153.69;;;14.50;100.00
44872;BME280;30602;51.060;17.226;2023-08-06T20:30:20;100156.38;;;14.55;100.00
44872;BME280;30602;51.060;17.226;2023-08-06T20:33:56;100155.27;;;14.55;100.00
44872;BME280;30602;51.060;17.226;2023-08-06T20:41:12;100131.27;;;14.34;100.00